createdAt,value
2022-11-02T00:02:04.933Z,11.91
2022-11-02T00:04:33.838Z,12.06
2022-11-02T00:07:03.785Z,11.65
2022-11-02T00:09:40.397Z,11.51
2022-11-02T00:12:11.658Z,11.86
2022-11-02T00:14:40.370Z,11.75
2022-11-02T00:17:18.438Z,11.82
2022-11-02T00:19:49.510Z,11.72
2022-11-02T00:22:18.316Z,11.46
2022-11-02T00:24:49.351Z,11.84
2022-11-02T00:27:21.217Z,11.66
2022-11-02T00:29:50.022Z,11.83
2022-11-02T00:32:19.846Z,11.78
2022-11-02T00:35:17.097Z,12.43
2022-11-02T00:37:48.470Z,11.22
2022-11-02T00:40:19.662Z,11.57
2022-11-02T00:42:50.661Z,11.15
2022-11-02T00:45:19.745Z,10.90
2022-11-02T00:47:48.808Z,10.97
2022-11-02T00:50:18.503Z,10.73
2022-11-02T00:52:47.284Z,10.95
2022-11-02T00:55:18.165Z,11.11
2022-11-02T00:57:47.606Z,10.95
2022-11-02T01:00:18.442Z,10.98
2022-11-02T01:02:47.977Z,10.88
2022-11-02T01:05:17.363Z,10.92
2022-11-02T01:07:46.607Z,10.83
2022-11-02T01:10:15.624Z,10.94
2022-11-02T01:12:44.286Z,10.87
2022-11-02T01:15:13.342Z,10.92
2022-11-02T01:17:43.417Z,10.82
2022-11-02T01:20:13.255Z,10.80
2022-11-02T01:22:41.940Z,10.74
2022-11-02T01:25:10.789Z,10.66
2022-11-02T01:27:41.947Z,10.98
2022-11-02T01:30:12.189Z,10.88
2022-11-02T01:32:40.966Z,10.96
2022-11-02T01:35:12.212Z,10.85
2022-11-02T01:37:48.843Z,11.01
2022-11-02T01:40:22.847Z,10.79
2022-11-02T01:42:51.810Z,10.63
2022-11-02T01:45:22.932Z,10.50
2022-11-02T01:47:51.833Z,10.46
2022-11-02T01:50:28.052Z,10.51
2022-11-02T01:52:57.878Z,10.58
2022-11-02T01:55:31.493Z,10.66
2022-11-02T01:58:04.189Z,10.37
2022-11-02T02:00:34.749Z,10.63
2022-11-02T02:03:09.038Z,10.59
2022-11-02T02:05:44.377Z,10.49
2022-11-02T02:08:22.874Z,10.57
2022-11-02T02:10:51.859Z,10.60
2022-11-02T02:13:21.143Z,10.67
2022-11-02T02:16:00.272Z,10.65
2022-11-02T02:18:35.476Z,10.57
2022-11-02T02:21:21.388Z,10.70
2022-11-02T02:24:28.737Z,10.73
2022-11-02T02:27:10.109Z,10.71
2022-11-02T02:30:10.618Z,10.65
2022-11-02T02:32:46.149Z,10.79
2022-11-02T02:35:25.779Z,10.80
2022-11-02T02:37:58.529Z,10.66
2022-11-02T02:40:34.984Z,11.00
2022-11-02T02:43:12.063Z,10.92
2022-11-02T02:45:48.845Z,10.85
2022-11-02T02:48:21.197Z,10.70
2022-11-02T02:50:51.814Z,10.90
2022-11-02T02:53:26.540Z,10.93
2022-11-02T02:55:56.605Z,10.91
2022-11-02T02:58:33.508Z,11.06
2022-11-02T03:01:07.394Z,10.95
2022-11-02T03:03:38.778Z,11.26
2022-11-02T03:06:17.918Z,11.14
2022-11-02T03:09:03.578Z,10.97
2022-11-02T03:11:35.409Z,10.86
2022-11-02T03:14:18.427Z,11.11
2022-11-02T03:17:08.747Z,11.05
2022-11-02T03:19:50.629Z,10.09
2022-11-02T03:22:31.315Z,10.92
2022-11-02T03:25:11.595Z,10.95
2022-11-02T03:27:50.052Z,10.94
2022-11-02T03:30:33.131Z,10.93
2022-11-02T03:33:10.571Z,11.08
2022-11-02T03:35:46.650Z,11.01
2022-11-02T03:38:22.606Z,10.65
2022-11-02T03:40:56.951Z,10.88
2022-11-02T03:43:27.960Z,10.88
2022-11-02T03:46:00.878Z,10.93
2022-11-02T03:48:37.057Z,10.84
2022-11-02T03:51:12.768Z,11.08
2022-11-02T03:53:47.806Z,10.92
2022-11-02T03:59:40.955Z,10.96
2022-11-02T04:02:11.682Z,10.90
2022-11-02T04:04:51.630Z,10.85
2022-11-02T04:07:29.868Z,10.92
2022-11-02T04:09:58.884Z,10.85
2022-11-02T04:12:44.967Z,11.14
2022-11-02T04:15:16.785Z,11.28
2022-11-02T04:18:03.768Z,11.07
2022-11-02T04:20:34.594Z,11.38
2022-11-02T04:23:20.841Z,11.45
2022-11-02T04:25:54.145Z,11.43
2022-11-02T04:28:52.759Z,11.47
2022-11-02T04:31:22.025Z,11.41
2022-11-02T05:00:23.314Z,10.79
2022-11-02T05:02:54.968Z,10.95
2022-11-02T05:05:25.682Z,10.83
2022-11-02T05:07:56.682Z,10.82
2022-11-02T05:10:25.088Z,10.82
2022-11-02T05:12:58.227Z,10.84
2022-11-02T05:15:29.828Z,10.81
2022-11-02T05:18:03.522Z,11.01
2022-11-02T05:20:32.362Z,11.17
2022-11-02T05:23:01.899Z,11.05
2022-11-02T05:25:31.880Z,11.01
2022-11-02T05:28:00.694Z,11.18
2022-11-02T05:30:29.769Z,11.05
2022-11-02T05:32:58.699Z,11.03
2022-11-02T05:35:29.073Z,11.26
2022-11-02T05:37:57.413Z,11.15
2022-11-02T05:40:26.765Z,11.19
2022-11-02T05:42:59.866Z,11.25
2022-11-02T05:45:28.932Z,11.17
2022-11-02T05:47:57.846Z,11.11
2022-11-02T05:50:26.221Z,10.95
2022-11-02T05:52:55.962Z,11.05
2022-11-02T05:55:25.020Z,11.02
2022-11-02T05:57:54.384Z,11.22
2022-11-02T06:00:24.229Z,10.95
2022-11-02T06:02:56.780Z,10.90
2022-11-02T06:05:45.214Z,10.83
2022-11-02T06:08:27.459Z,11.14
2022-11-02T14:32:15.716Z,14.72
2022-11-02T14:34:58.432Z,14.72
2022-11-02T14:37:40.657Z,14.61
2022-11-02T14:40:20.173Z,14.38
2022-11-02T14:43:00.483Z,14.61
2022-11-02T14:45:38.136Z,14.39
2022-11-02T14:48:16.159Z,14.28
2022-11-02T14:50:45.394Z,14.23
2022-11-02T14:53:24.014Z,14.08
2022-11-02T14:55:54.148Z,14.10
2022-11-02T14:58:24.066Z,14.11
2022-11-02T15:00:58.408Z,14.04
2022-11-02T15:03:33.352Z,14.30
2022-11-02T15:06:03.888Z,13.79
2022-11-02T15:08:34.872Z,13.77
2022-11-02T15:11:25.720Z,13.89
2022-11-02T15:13:54.160Z,13.84
2022-11-02T15:16:25.900Z,13.54
2022-11-02T15:19:18.118Z,13.68
2022-11-02T15:21:46.826Z,13.55
2022-11-02T15:24:17.968Z,13.39
2022-11-02T15:26:50.690Z,13.43
2022-11-02T15:29:36.544Z,13.40
2022-11-02T15:32:07.412Z,13.61
2022-11-02T15:34:40.577Z,13.55
2022-11-02T15:37:14.844Z,13.49
2022-11-02T15:39:48.540Z,13.32
2022-11-02T15:42:21.832Z,13.48
2022-11-02T15:45:14.335Z,13.45
2022-11-02T15:48:01.618Z,13.14
2022-11-02T15:50:46.915Z,13.07
2022-11-02T15:53:24.874Z,12.91
2022-11-02T15:55:59.220Z,13.05
2022-11-02T15:58:36.908Z,13.02
2022-11-02T16:01:05.726Z,12.90
2022-11-02T16:03:36.431Z,13.08
2022-11-02T16:06:10.899Z,13.19
2022-11-02T16:08:46.374Z,12.76
2022-11-02T16:11:19.781Z,12.74
2022-11-02T16:14:07.580Z,12.54
2022-11-02T16:16:46.864Z,12.64
2022-11-02T16:19:19.228Z,12.63
2022-11-02T16:21:51.811Z,12.45
2022-11-02T16:24:21.446Z,12.62
2022-11-02T16:26:50.675Z,12.62
2022-11-02T16:29:23.685Z,12.60
2022-11-02T16:31:52.698Z,12.70
2022-11-02T16:34:23.373Z,12.57
2022-11-02T16:36:55.613Z,12.60
2022-11-02T16:39:28.213Z,12.39
2022-11-02T16:42:00.153Z,12.40
2022-11-02T16:44:32.353Z,12.21
2022-11-02T16:47:01.484Z,12.46
2022-11-02T16:49:32.263Z,12.39
2022-11-02T16:52:18.875Z,12.55
2022-11-02T16:54:47.707Z,12.49
2022-11-02T16:57:23.755Z,12.31
2022-11-02T16:59:54.520Z,12.51
2022-11-02T17:02:41.027Z,12.44
2022-11-02T17:05:17.529Z,12.28
2022-11-02T17:07:59.996Z,12.08
2022-11-02T17:10:29.443Z,12.46
2022-11-02T17:13:07.714Z,12.19
2022-11-02T17:15:37.537Z,12.24
2022-11-02T17:18:16.646Z,12.27
2022-11-02T17:21:20.865Z,12.32
2022-11-02T17:23:53.575Z,12.24
2022-11-02T17:26:29.370Z,12.20
2022-11-02T17:28:59.873Z,12.12
2022-11-02T17:31:32.146Z,12.28
2022-11-02T17:34:02.765Z,12.02
2022-11-02T17:36:43.895Z,12.05
2022-11-02T17:39:25.620Z,12.05
2022-11-02T17:42:14.771Z,12.07
2022-11-02T17:44:47.249Z,11.82
2022-11-02T17:47:21.831Z,11.88
2022-11-02T17:49:59.732Z,11.72
2022-11-02T17:52:32.546Z,11.94
2022-11-02T17:55:03.316Z,11.85
2022-11-02T17:57:34.384Z,11.92
2022-11-02T18:00:03.766Z,12.02
2022-11-02T18:34:13.831Z,11.44
2022-11-02T18:36:45.745Z,11.63
2022-11-02T18:39:15.012Z,11.43
2022-11-02T18:41:43.349Z,11.56
2022-11-02T18:44:15.459Z,11.52
2022-11-02T18:46:46.694Z,11.59
2022-11-02T18:49:16.976Z,11.56
2022-11-02T18:51:45.812Z,11.72
2022-11-02T18:54:20.957Z,11.63
2022-11-02T18:56:52.020Z,11.61
2022-11-02T18:59:21.145Z,11.77
2022-11-02T19:01:52.198Z,11.56
2022-11-02T19:04:24.291Z,11.56
2022-11-02T19:07:15.342Z,11.59
2022-11-02T19:09:45.239Z,11.53
2022-11-02T19:12:15.670Z,11.77
2022-11-02T19:14:44.893Z,11.67
2022-11-02T19:17:15.175Z,11.55
2022-11-02T19:19:48.867Z,11.47
2022-11-02T19:22:18.816Z,11.66
2022-11-02T19:24:47.214Z,11.31
2022-11-02T19:27:19.675Z,11.73
2022-11-02T19:29:48.120Z,11.70
2022-11-02T19:32:20.469Z,11.35
2022-11-02T19:34:50.503Z,11.65
2022-11-02T19:37:19.284Z,11.50
2022-11-02T19:39:47.624Z,10.66
2022-11-02T19:42:16.989Z,11.52
2022-11-02T19:44:45.355Z,11.43
2022-11-02T19:47:14.036Z,11.56
2022-11-02T19:49:43.275Z,11.58
2022-11-02T19:52:14.275Z,11.64
2022-11-02T19:54:42.732Z,11.42
2022-11-02T19:57:11.790Z,11.82
2022-11-02T19:59:40.996Z,11.62
2022-11-02T20:02:12.451Z,11.55
2022-11-02T20:04:42.607Z,11.64
2022-11-02T20:07:13.620Z,11.44
2022-11-02T20:09:42.302Z,11.61
2022-11-02T20:12:11.087Z,11.55
2022-11-02T20:14:39.653Z,11.36
2022-11-02T20:17:30.085Z,11.39
2022-11-02T20:19:59.170Z,11.37
2022-11-02T20:22:29.152Z,11.68
2022-11-02T20:24:58.100Z,11.56
2022-11-02T20:27:30.709Z,11.56
2022-11-02T20:30:00.130Z,11.54
2022-11-02T20:32:28.652Z,11.63
2022-11-02T20:35:00.211Z,11.37
2022-11-02T20:37:34.391Z,11.21
2022-11-02T20:40:03.415Z,11.61
2022-11-02T20:42:36.365Z,11.44
2022-11-02T20:45:05.517Z,11.21
2022-11-02T20:47:34.496Z,11.39
2022-11-02T20:50:04.157Z,11.36
2022-11-02T20:52:38.459Z,11.31
2022-11-02T20:55:10.268Z,11.19
2022-11-02T20:57:39.605Z,11.12
2022-11-02T21:00:08.659Z,11.10
2022-11-02T21:02:37.291Z,11.51
2022-11-02T21:05:09.752Z,11.67
2022-11-02T21:07:40.771Z,11.33
2022-11-02T21:10:10.866Z,11.19
2022-11-02T21:12:56.521Z,11.44
2022-11-02T21:15:25.173Z,11.34
2022-11-02T21:17:53.813Z,11.34
2022-11-02T21:20:39.253Z,11.41
2022-11-02T21:23:09.985Z,11.28
2022-11-02T21:25:40.388Z,11.36
2022-11-02T21:28:09.238Z,11.20
2022-11-02T21:30:40.112Z,11.39
2022-11-02T21:33:09.200Z,11.32
2022-11-02T21:35:42.553Z,11.21
2022-11-02T21:38:12.451Z,11.22
2022-11-02T21:40:40.934Z,11.27
2022-11-02T21:43:09.531Z,11.26
2022-11-02T21:45:38.383Z,11.30
2022-11-02T21:48:06.953Z,10.97
2022-11-02T21:50:35.543Z,11.07
2022-11-02T21:53:04.195Z,10.97
2022-11-02T21:55:34.578Z,10.96
2022-11-02T21:58:03.162Z,11.02
2022-11-02T22:00:45.586Z,11.16
2022-11-02T22:03:18.248Z,11.09
2022-11-02T22:05:56.144Z,10.59
2022-11-02T22:08:44.737Z,11.07
2022-11-02T22:11:28.404Z,11.13
2022-11-02T22:13:58.839Z,11.02
2022-11-02T22:16:28.834Z,10.98
2022-11-02T22:18:58.416Z,10.93
2022-11-02T22:21:27.885Z,10.98
2022-11-02T22:23:56.756Z,10.96
2022-11-02T22:26:28.198Z,10.93
2022-11-02T22:28:58.316Z,10.87
2022-11-02T22:31:28.227Z,11.19
2022-11-02T22:33:58.414Z,10.87
2022-11-02T22:36:28.445Z,11.06
2022-11-02T22:38:56.977Z,10.92
2022-11-02T22:41:27.913Z,10.93
2022-11-02T22:43:57.691Z,10.79
2022-11-02T22:46:27.123Z,11.11
2022-11-02T22:48:59.001Z,10.89
2022-11-02T22:51:29.820Z,11.14
2022-11-02T22:54:00.925Z,11.09
2022-11-02T22:56:30.743Z,10.93
2022-11-02T22:59:00.243Z,10.98
2022-11-02T23:01:29.504Z,10.65
2022-11-02T23:03:58.839Z,11.01
2022-11-02T23:06:28.297Z,10.80
2022-11-02T23:09:01.377Z,11.11
2022-11-02T23:11:31.548Z,10.95
2022-11-02T23:14:01.145Z,10.93
2022-11-02T23:16:32.962Z,10.82
2022-11-02T23:19:27.817Z,10.97
2022-11-02T23:22:16.413Z,10.74
2022-11-02T23:25:03.616Z,10.57
2022-11-02T23:27:56.515Z,10.81
2022-11-02T23:30:44.656Z,10.94
2022-11-02T23:33:13.574Z,10.89
2022-11-02T23:35:59.530Z,11.06
2022-11-02T23:38:48.376Z,11.04
2022-11-02T23:41:17.670Z,10.92
2022-11-02T23:43:50.134Z,11.07
2022-11-02T23:46:18.667Z,11.01
2022-11-02T23:48:52.762Z,11.01
2022-11-02T23:51:40.447Z,11.08
2022-11-02T23:54:26.346Z,10.88
2022-11-02T23:56:54.908Z,11.12
2022-11-02T23:59:25.441Z,11.09
